Time;durP1;ratioP1;P1;durP2;ratioP2;P2;SDS_P1;SDS_P2;PMS_P1;PMS_P2;Temp;Humidity;BMP_temperature;BMP_pressure;BME280_temperature;BME280_humidity;BME280_pressure;Samples;Min_cycle;Max_cycle;Signal;HPM_P1;HPM_P2
2022/07/04 00:00:10;;;;;;;7.40;2.22;;;21.20;99.90;;;;;;4840861;29;20113;-79
2022/07/04 00:02:38;;;;;;;4.55;2.38;;;21.20;99.90;;;;;;4872708;29;20038;-78
2022/07/04 00:05:04;;;;;;;7.60;2.60;;;21.20;99.90;;;;;;4859116;29;20029;-78
2022/07/04 00:07:30;;;;;;;4.93;2.25;;;21.20;99.90;;;;;;4859067;29;20053;-78
2022/07/04 00:09:56;;;;;;;9.07;2.60;;;21.10;99.90;;;;;;4859211;29;20478;-78
2022/07/04 00:12:21;;;;;;;11.15;2.10;;;21.00;99.90;;;;;;4858968;29;20053;-78
2022/07/04 00:14:47;;;;;;;5.25;1.95;;;20.90;99.90;;;;;;4862050;29;20033;-78
2022/07/04 00:17:13;;;;;;;5.03;1.60;;;20.90;99.90;;;;;;4862657;29;20120;-77
2022/07/04 00:19:38;;;;;;;4.88;1.60;;;20.60;99.90;;;;;;4862157;29;20112;-78
2022/07/04 00:22:04;;;;;;;6.00;2.05;;;20.40;99.90;;;;;;4862440;29;20068;-78
2022/07/04 00:24:30;;;;;;;6.13;2.13;;;20.30;99.90;;;;;;4862737;29;20029;-78
2022/07/04 00:26:55;;;;;;;6.38;1.95;;;20.30;99.90;;;;;;4861994;29;20081;-78
2022/07/04 00:29:21;;;;;;;6.50;2.00;;;20.40;99.90;;;;;;4862472;29;20061;-78
2022/07/04 00:31:47;;;;;;;9.38;2.17;;;20.60;99.90;;;;;;4876478;29;20034;-78
2022/07/04 00:34:12;;;;;;;7.95;1.67;;;20.30;99.90;;;;;;4862435;29;20022;-78
2022/07/04 00:36:38;;;;;;;6.75;2.17;;;20.30;99.90;;;;;;4876436;29;20531;-78
2022/07/04 00:39:04;;;;;;;5.95;1.52;;;20.20;99.90;;;;;;4876277;29;20075;-78
2022/07/04 00:41:29;;;;;;;8.70;1.83;;;20.40;99.90;;;;;;4861873;29;20061;-78
2022/07/04 00:44:02;;;;;;;5.18;1.45;;;20.10;99.90;;;;;;4861938;29;20455;-78
2022/07/04 00:46:28;;;;;;;9.85;1.92;;;20.10;99.90;;;;;;4861985;29;20379;-78
2022/07/04 00:48:54;;;;;;;8.23;2.17;;;19.90;99.90;;;;;;4861977;29;20041;-78
2022/07/04 00:51:20;;;;;;;4.63;1.73;;;19.80;99.90;;;;;;4862539;29;20032;-78
2022/07/04 00:53:46;;;;;;;4.78;1.52;;;20.00;99.90;;;;;;4862105;29;20529;-78
2022/07/04 00:56:11;;;;;;;11.23;1.95;;;20.00;99.90;;;;;;4861858;29;20061;-79
2022/07/04 00:58:37;;;;;;;6.03;1.83;;;19.70;99.90;;;;;;4880272;29;20497;-78
2022/07/04 01:01:04;;;;;;;4.55;1.48;;;19.60;99.90;;;;;;4880253;29;20029;-78
2022/07/04 01:03:29;;;;;;;5.38;1.70;;;19.40;99.90;;;;;;4873170;29;20025;-78
2022/07/04 01:05:58;;;;;;;4.03;1.52;;;19.40;99.90;;;;;;4861616;29;20044;-78
2022/07/04 01:08:24;;;;;;;7.40;1.92;;;19.40;99.90;;;;;;4861400;29;20046;-78
2022/07/04 01:10:49;;;;;;;9.80;1.80;;;19.30;99.90;;;;;;4861178;29;20363;-78
2022/07/04 01:13:22;;;;;;;3.72;1.60;;;19.30;99.90;;;;;;4862187;29;20026;-78
2022/07/04 01:15:48;;;;;;;6.43;1.60;;;19.30;99.90;;;;;;4861025;29;20025;-77
2022/07/04 01:18:14;;;;;;;6.13;2.10;;;19.40;99.90;;;;;;4861590;29;20086;-78
2022/07/04 01:20:40;;;;;;;6.43;1.50;;;19.10;99.90;;;;;;4860188;29;20025;-78
2022/07/04 01:23:06;;;;;;;6.50;1.50;;;19.30;99.90;;;;;;4861146;29;20041;-78
2022/07/04 01:25:32;;;;;;;5.18;1.45;;;19.20;99.90;;;;;;4860432;29;20078;-77
2022/07/04 01:28:02;;;;;;;7.35;1.75;;;19.10;99.90;;;;;;4842902;29;20442;-78
2022/07/04 01:30:28;;;;;;;9.02;1.80;;;19.10;99.90;;;;;;4842935;29;20049;-78
2022/07/04 01:32:54;;;;;;;8.73;2.00;;;19.00;99.90;;;;;;4842644;29;20044;-78
2022/07/04 01:35:21;;;;;;;9.23;2.10;;;19.10;99.90;;;;;;4842680;29;20040;-78
2022/07/04 01:37:48;;;;;;;8.52;1.65;;;19.10;99.90;;;;;;4842347;29;20097;-78
2022/07/04 01:40:13;;;;;;;11.30;2.10;;;19.10;99.90;;;;;;4848863;29;20033;-78
2022/07/04 01:42:39;;;;;;;12.93;2.67;;;19.10;99.90;;;;;;4860676;29;20563;-78
2022/07/04 01:45:06;;;;;;;6.40;1.65;;;19.00;99.90;;;;;;4860985;29;20105;-78
2022/07/04 01:47:32;;;;;;;7.90;1.83;;;18.80;99.90;;;;;;4861100;29;20018;-78
2022/07/04 01:49:58;;;;;;;10.10;1.70;;;18.80;99.90;;;;;;4861088;29;20549;-78
2022/07/04 01:52:24;;;;;;;5.55;1.27;;;18.50;99.90;;;;;;4890296;29;20033;-77
2022/07/04 01:54:49;;;;;;;8.57;1.58;;;18.70;99.90;;;;;;4860625;29;20037;-78
2022/07/04 01:57:15;;;;;;;7.28;1.60;;;18.70;99.90;;;;;;4890264;29;20041;-78
2022/07/04 02:02:25;;;;;;;6.15;1.70;;;18.60;99.90;;;;;;4860683;29;20088;-78
2022/07/04 02:04:51;;;;;;;6.65;1.60;;;18.50;99.90;;;;;;4856267;29;20021;-78
2022/07/04 02:07:16;;;;;;;6.40;2.03;;;18.30;99.90;;;;;;4842300;29;20034;-78
2022/07/04 02:09:42;;;;;;;7.07;1.50;;;18.30;99.90;;;;;;4843696;29;20041;-78
2022/07/04 02:14:52;;;;;;;6.50;1.63;;;18.30;99.90;;;;;;4860406;29;20089;-77
2022/07/04 02:17:18;;;;;;;11.00;2.00;;;18.50;99.90;;;;;;4860356;29;20212;-78
2022/07/04 02:19:44;;;;;;;7.63;1.92;;;18.50;99.90;;;;;;4860645;29;20553;-77
2022/07/04 02:22:10;;;;;;;6.57;1.75;;;18.20;99.90;;;;;;4859960;29;20044;-77
2022/07/04 02:24:36;;;;;;;6.65;1.52;;;18.40;99.90;;;;;;4860621;29;20095;-78
2022/07/04 02:27:01;;;;;;;8.50;2.25;;;18.20;99.90;;;;;;4860636;29;20034;-78
2022/07/04 02:29:27;;;;;;;6.13;1.70;;;18.30;99.90;;;;;;4860445;29;20101;-78
2022/07/04 02:31:53;;;;;;;7.45;2.72;;;18.30;99.90;;;;;;4859992;29;20041;-77
2022/07/04 02:34:18;;;;;;;5.13;1.63;;;18.10;99.90;;;;;;4860634;29;20060;-78
2022/07/04 02:36:44;;;;;;;8.90;1.88;;;18.00;99.90;;;;;;4859659;29;20087;-77
2022/07/04 02:39:10;;;;;;;7.47;1.67;;;18.00;99.90;;;;;;4889759;29;20030;-78
2022/07/04 02:41:36;;;;;;;5.03;1.60;;;18.10;99.90;;;;;;4889752;29;20041;-77
2022/07/04 02:44:02;;;;;;;9.35;1.88;;;18.00;99.90;;;;;;4860051;29;20049;-78
2022/07/04 02:46:28;;;;;;;6.95;1.55;;;18.20;99.90;;;;;;4860257;29;20406;-78
2022/07/04 02:48:54;;;;;;;6.72;1.95;;;18.20;99.90;;;;;;4859999;29;20029;-78
2022/07/04 02:51:20;;;;;;;6.15;1.65;;;18.10;99.90;;;;;;4859860;29;20585;-78
2022/07/04 02:53:45;;;;;;;6.38;2.13;;;18.20;99.90;;;;;;4860112;29;20025;-78
2022/07/04 02:56:11;;;;;;;6.05;1.83;;;18.30;99.90;;;;;;4859550;29;20034;-78
2022/07/04 02:58:37;;;;;;;6.03;1.95;;;18.40;99.90;;;;;;4860183;29;20033;-78
2022/07/04 03:01:02;;;;;;;6.80;2.10;;;18.20;99.90;;;;;;4859901;29;20037;-78
2022/07/04 03:03:28;;;;;;;7.13;1.80;;;18.20;99.90;;;;;;4869860;29;20053;-78
2022/07/04 03:05:54;;;;;;;6.75;2.00;;;18.20;99.90;;;;;;4862953;29;20117;-78
2022/07/04 03:08:19;;;;;;;12.35;2.60;;;18.10;99.90;;;;;;4859776;29;20414;-78
2022/07/04 03:10:45;;;;;;;8.15;2.20;;;18.10;99.90;;;;;;4859511;29;20040;-78
2022/07/04 03:13:11;;;;;;;9.43;1.83;;;18.30;99.90;;;;;;4859655;29;20033;-77
2022/07/04 03:15:36;;;;;;;12.80;2.45;;;18.10;99.90;;;;;;4859739;29;20039;-78
2022/07/04 03:18:02;;;;;;;6.65;2.00;;;18.00;99.90;;;;;;4859701;29;20030;-77
2022/07/04 03:20:28;;;;;;;7.93;1.92;;;18.00;99.90;;;;;;4859283;29;20041;-78
2022/07/04 03:22:54;;;;;;;5.47;1.92;;;18.00;99.90;;;;;;4859819;29;20036;-78
2022/07/04 03:25:20;;;;;;;8.27;2.22;;;18.10;99.90;;;;;;4859517;29;20558;-78
2022/07/04 03:27:46;;;;;;;6.13;2.38;;;18.10;99.90;;;;;;4859587;29;20053;-78
2022/07/04 03:30:12;;;;;;;5.20;1.77;;;18.00;99.90;;;;;;4859540;29;20057;-78
2022/07/04 03:32:38;;;;;;;7.03;2.08;;;17.90;99.90;;;;;;4859329;29;20029;-78
2022/07/04 03:35:05;;;;;;;8.05;2.17;;;18.00;99.90;;;;;;4858905;29;20458;-78
2022/07/04 03:37:30;;;;;;;5.68;2.10;;;17.80;99.90;;;;;;4859517;29;20033;-78
2022/07/04 03:39:56;;;;;;;8.63;2.10;;;17.90;99.90;;;;;;4859279;29;20049;-77
2022/07/04 03:42:22;;;;;;;10.90;2.20;;;17.80;99.90;;;;;;4859297;29;20473;-77
2022/07/04 03:44:48;;;;;;;9.85;2.05;;;18.00;99.90;;;;;;4859488;29;20043;-77
2022/07/04 03:47:14;;;;;;;6.60;2.15;;;18.00;99.90;;;;;;4873711;29;20436;-77
2022/07/04 03:49:40;;;;;;;7.43;2.42;;;17.90;99.90;;;;;;4862335;29;20108;-78
2022/07/04 03:52:06;;;;;;;9.07;2.53;;;17.90;99.90;;;;;;4862518;29;20038;-78
2022/07/04 03:54:32;;;;;;;5.32;2.15;;;17.90;99.90;;;;;;4862557;29;20105;-78
2022/07/04 03:56:57;;;;;;;12.13;2.45;;;18.00;99.90;;;;;;4862789;29;20121;-78
2022/07/04 03:59:23;;;;;;;5.95;1.90;;;18.00;99.90;;;;;;4862903;29;20064;-78
2022/07/04 04:01:49;;;;;;;7.25;2.03;;;18.00;99.90;;;;;;4862819;29;20033;-77
2022/07/04 04:06:59;;;;;;;6.03;2.40;;;18.10;99.90;;;;;;4862824;29;20033;-77
2022/07/04 04:09:25;;;;;;;3.80;1.90;;;18.00;99.90;;;;;;4862413;29;20045;-78
2022/07/04 04:11:51;;;;;;;8.93;2.85;;;18.00;99.90;;;;;;4862857;29;20501;-78
2022/07/04 04:14:17;;;;;;;10.13;2.40;;;18.00;99.90;;;;;;4862638;29;20026;-81
2022/07/04 04:16:43;;;;;;;8.30;2.15;;;17.90;99.90;;;;;;4862809;29;20482;-78
2022/07/04 04:19:09;;;;;;;7.88;2.63;;;17.90;99.90;;;;;;4861988;29;20037;-79
2022/07/04 04:21:35;;;;;;;4.82;1.98;;;17.80;99.90;;;;;;4861859;29;20085;-79
2022/07/04 04:24:01;;;;;;;6.50;2.35;;;18.00;99.90;;;;;;4862933;29;20037;-79
2022/07/04 04:26:28;;;;;;;8.48;1.83;;;18.00;99.90;;;;;;4862403;29;20036;-77
2022/07/04 04:28:54;;;;;;;8.00;2.50;;;18.00;99.90;;;;;;4861018;29;20413;-77
2022/07/04 04:31:19;;;;;;;5.60;2.45;;;18.00;99.90;;;;;;4862040;29;20025;-78
2022/07/04 04:33:45;;;;;;;8.60;2.25;;;18.10;99.90;;;;;;4861907;29;20119;-78
2022/07/04 04:36:11;;;;;;;10.43;2.47;;;18.10;99.90;;;;;;4862033;29;20037;-78
2022/07/04 04:38:37;;;;;;;9.07;2.60;;;18.10;99.90;;;;;;4862441;29;20060;-78
2022/07/04 04:41:02;;;;;;;9.10;2.70;;;18.10;99.90;;;;;;4876259;29;20032;-78
2022/07/04 04:43:28;;;;;;;10.63;2.83;;;18.10;99.90;;;;;;4861091;29;20474;-78
2022/07/04 04:45:54;;;;;;;8.20;2.65;;;18.10;99.90;;;;;;4861877;29;20032;-80
2022/07/04 04:48:20;;;;;;;7.70;2.53;;;18.10;99.90;;;;;;4860372;29;20447;-80
2022/07/04 04:50:45;;;;;;;7.88;2.33;;;18.10;99.90;;;;;;4861474;29;20036;-80
2022/07/04 04:53:12;;;;;;;13.77;3.53;;;18.10;99.90;;;;;;4861974;29;20037;-80
2022/07/04 04:55:38;;;;;;;8.90;3.33;;;18.10;99.90;;;;;;4862194;29;20375;-80
2022/07/04 04:58:04;;;;;;;8.70;3.03;;;18.10;99.90;;;;;;4862110;29;20030;-80
2022/07/04 05:00:29;;;;;;;8.70;2.78;;;18.10;99.90;;;;;;4860368;29;20450;-80
2022/07/04 05:02:55;;;;;;;13.13;3.15;;;18.20;99.90;;;;;;4857871;29;20029;-79
2022/07/04 05:05:21;;;;;;;12.57;3.78;;;18.20;99.90;;;;;;4857331;29;20037;-79
2022/07/04 05:07:46;;;;;;;10.57;3.20;;;18.10;99.90;;;;;;4855002;29;20038;-80
2022/07/04 05:10:12;;;;;;;8.48;2.75;;;18.20;99.90;;;;;;4860139;29;20048;-80
2022/07/04 05:12:38;;;;;;;9.88;3.22;;;18.20;99.90;;;;;;4860803;29;20026;-80
2022/07/04 05:15:05;;;;;;;9.57;3.30;;;18.20;99.90;;;;;;4860007;29;20029;-79
2022/07/04 05:17:30;;;;;;;12.65;3.50;;;18.30;99.90;;;;;;4858964;29;20072;-79
2022/07/04 05:19:56;;;;;;;13.38;3.58;;;18.10;99.90;;;;;;4859534;29;20025;-80
2022/07/04 05:22:22;;;;;;;9.38;2.97;;;18.10;99.90;;;;;;4859107;29;20038;-79
2022/07/04 05:24:47;;;;;;;8.70;3.15;;;18.20;99.90;;;;;;4860986;29;20037;-80
2022/07/04 05:27:13;;;;;;;13.27;2.67;;;18.20;99.90;;;;;;4860566;29;20055;-79
2022/07/04 05:29:39;;;;;;;11.13;3.28;;;18.20;99.90;;;;;;4860798;29;20037;-80
2022/07/04 05:32:06;;;;;;;7.15;2.60;;;18.30;99.90;;;;;;4860784;29;20410;-80
2022/07/04 05:34:31;;;;;;;8.63;2.55;;;18.30;99.90;;;;;;4860056;29;20371;-80
2022/07/04 05:36:57;;;;;;;8.48;2.55;;;18.40;99.90;;;;;;4861757;29;20025;-80
2022/07/04 05:39:23;;;;;;;17.55;3.35;;;18.40;99.90;;;;;;4867775;29;20117;-80
2022/07/04 05:41:48;;;;;;;8.68;2.53;;;18.40;99.90;;;;;;4880465;29;20048;-80
2022/07/04 05:44:14;;;;;;;8.18;2.40;;;18.40;99.90;;;;;;4880084;29;20112;-80
2022/07/04 05:46:39;;;;;;;7.85;2.58;;;18.40;99.90;;;;;;4880290;29;20206;-81
2022/07/04 05:49:05;;;;;;;9.00;2.67;;;18.50;99.90;;;;;;4880315;29;20041;-79
2022/07/04 05:51:31;;;;;;;8.32;2.92;;;18.50;99.90;;;;;;4870096;29;20037;-79
2022/07/04 05:53:56;;;;;;;12.68;2.67;;;18.50;99.90;;;;;;4860743;29;20037;-77
2022/07/04 05:56:23;;;;;;;5.78;2.47;;;18.60;99.90;;;;;;4859983;29;20138;-77
2022/07/04 05:58:48;;;;;;;10.43;2.45;;;18.50;99.90;;;;;;4859166;29;20033;-78
2022/07/04 06:01:14;;;;;;;8.70;2.72;;;18.60;99.90;;;;;;4856689;29;20055;-77
2022/07/04 06:03:40;;;;;;;12.63;2.95;;;18.50;99.90;;;;;;4859726;29;20435;-77
2022/07/04 06:06:06;;;;;;;8.45;2.45;;;18.60;99.90;;;;;;4860166;29;20093;-77
2022/07/04 06:08:32;;;;;;;9.75;2.90;;;18.70;99.90;;;;;;4860034;29;20137;-78
2022/07/04 06:10:58;;;;;;;12.07;2.38;;;18.50;99.90;;;;;;4859840;29;20090;-78
2022/07/04 06:13:24;;;;;;;8.63;2.95;;;18.60;99.90;;;;;;4860300;29;20026;-83
2022/07/04 06:15:50;;;;;;;13.73;2.90;;;18.80;99.90;;;;;;4860415;29;20486;-78
2022/07/04 06:18:16;;;;;;;7.18;2.50;;;18.90;99.90;;;;;;4860541;29;20021;-77
2022/07/04 06:20:41;;;;;;;8.70;2.58;;;18.90;99.90;;;;;;4859540;29;20108;-78
2022/07/04 08:34:46;;;;;;;9.77;2.75;;;22.00;99.90;;;;;;5445352;23;20349;-78
2022/07/04 08:37:12;;;;;;;15.60;3.28;;;22.10;99.90;;;;;;4918840;29;20029;-77
2022/07/04 08:39:38;;;;;;;8.05;3.17;;;21.90;99.90;;;;;;4917561;29;20032;-77
2022/07/04 08:42:09;;;;;;;13.98;3.83;;;21.90;99.90;;;;;;4918101;29;20032;-77
2022/07/04 08:44:39;;;;;;;11.73;2.97;;;21.90;99.90;;;;;;4917749;29;20091;-78
2022/07/04 08:47:09;;;;;;;13.98;3.50;;;22.00;99.90;;;;;;4918530;29;20020;-77
2022/07/04 08:49:38;;;;;;;8.27;3.33;;;22.00;99.90;;;;;;4918794;29;20555;-78
2022/07/04 08:52:05;;;;;;;11.18;3.13;;;22.00;99.90;;;;;;4917733;29;20418;-77
2022/07/04 09:00:03;;;;;;;12.40;3.83;;;22.20;99.90;;;;;;4899386;29;20044;-80
2022/07/04 10:26:02;;;;;;;8.73;3.28;;;26.60;91.10;;;;;;5430827;23;20457;-79
2022/07/04 10:28:28;;;;;;;5.70;2.85;;;26.80;90.60;;;;;;4916295;29;20050;-77
2022/07/04 10:30:56;;;;;;;6.03;3.08;;;26.80;90.10;;;;;;4916778;29;20085;-77
2022/07/04 10:33:27;;;;;;;7.00;3.42;;;26.20;90.70;;;;;;4916624;29;20167;-77
2022/07/04 10:36:01;;;;;;;6.78;3.10;;;26.10;90.40;;;;;;4916909;29;20420;-77
2022/07/04 10:38:26;;;;;;;9.93;3.13;;;25.60;91.00;;;;;;4916904;29;20030;-77
2022/07/04 10:40:57;;;;;;;9.70;3.30;;;26.00;90.90;;;;;;4916990;29;20099;-77
2022/07/04 10:43:38;;;;;;;9.38;3.08;;;26.30;90.00;;;;;;4915395;29;20032;-78
2022/07/04 10:46:16;;;;;;;7.78;3.15;;;26.00;90.10;;;;;;4915675;29;20075;-78
2022/07/04 10:49:00;;;;;;;5.03;2.83;;;25.90;90.40;;;;;;4910738;29;20024;-78
2022/07/04 10:51:39;;;;;;;6.88;2.80;;;26.30;88.70;;;;;;4915345;29;20024;-78
2022/07/04 10:54:38;;;;;;;7.22;2.83;;;26.70;88.60;;;;;;4915407;29;20047;-78
2022/07/04 10:57:23;;;;;;;7.38;2.78;;;27.10;87.30;;;;;;4907351;29;20528;-78
2022/07/04 10:59:56;;;;;;;9.48;2.60;;;26.50;86.50;;;;;;4912693;29;20055;-78
2022/07/04 11:02:27;;;;;;;9.07;2.47;;;26.30;88.80;;;;;;4912979;29;20032;-78
2022/07/04 11:05:02;;;;;;;4.95;2.30;;;26.80;87.10;;;;;;4913416;29;20032;-78
2022/07/04 11:07:36;;;;;;;9.48;2.47;;;26.90;84.40;;;;;;4893130;29;20036;-78
2022/07/04 11:10:11;;;;;;;6.07;2.30;;;27.40;82.60;;;;;;4913367;29;20036;-77
2022/07/04 11:12:54;;;;;;;4.35;2.38;;;27.90;82.90;;;;;;4914252;29;20044;-78
2022/07/04 11:15:32;;;;;;;4.82;2.00;;;27.70;83.00;;;;;;4914003;29;20032;-78
2022/07/04 11:18:05;;;;;;;3.33;1.98;;;28.10;82.30;;;;;;4914485;29;20043;-78
2022/07/04 11:20:34;;;;;;;4.93;2.30;;;27.40;82.60;;;;;;4913955;29;20040;-78
2022/07/04 15:58:30;;;;;;;7.55;1.50;;;26.70;84.00;;;;;;5933727;23;20888;-76
2022/07/04 16:00:56;;;;;;;4.20;1.67;;;26.70;83.80;;;;;;4917046;29;20039;-76
2022/07/04 16:03:22;;;;;;;4.32;1.60;;;26.70;83.50;;;;;;4918857;29;20032;-79
2022/07/04 16:05:47;;;;;;;5.30;1.50;;;26.70;84.20;;;;;;4919012;29;20036;-77
2022/07/04 16:08:13;;;;;;;7.35;1.90;;;26.70;84.10;;;;;;4905491;29;20051;-78
2022/07/04 16:10:39;;;;;;;10.38;1.90;;;26.70;84.60;;;;;;4919642;29;20039;-78
2022/07/04 16:13:04;;;;;;;3.42;1.80;;;26.80;84.70;;;;;;4919462;29;20035;-78
2022/07/04 16:15:31;;;;;;;3.47;1.85;;;26.80;83.40;;;;;;4919196;29;20035;-79
2022/07/04 16:17:57;;;;;;;7.07;1.90;;;26.70;83.20;;;;;;4918678;29;20061;-79
2022/07/04 16:20:22;;;;;;;3.50;1.60;;;26.70;83.40;;;;;;4918972;29;20032;-79
2022/07/04 16:22:49;;;;;;;6.25;2.00;;;26.70;83.50;;;;;;4918148;29;20484;-79
2022/07/04 16:25:15;;;;;;;4.68;1.50;;;26.70;83.50;;;;;;4918584;29;20039;-79
2022/07/04 16:27:40;;;;;;;4.45;1.80;;;26.70;83.90;;;;;;4918417;29;20020;-79
2022/07/04 16:30:07;;;;;;;9.48;2.10;;;26.70;84.60;;;;;;4918599;29;20032;-79
2022/07/04 16:32:34;;;;;;;6.90;1.80;;;26.70;85.20;;;;;;4918397;29;20107;-79
2022/07/04 16:35:01;;;;;;;4.07;1.80;;;26.60;84.50;;;;;;4917165;29;20132;-78
2022/07/04 16:37:27;;;;;;;5.43;1.95;;;26.50;85.00;;;;;;4918217;29;20043;-79
2022/07/04 16:39:52;;;;;;;6.22;1.77;;;26.60;86.00;;;;;;4918158;29;20488;-79
2022/07/04 16:42:18;;;;;;;5.20;1.95;;;26.60;86.30;;;;;;4918362;29;20024;-79
2022/07/04 16:44:43;;;;;;;5.65;1.85;;;26.60;85.30;;;;;;4918098;29;20084;-79
2022/07/04 16:47:09;;;;;;;10.32;1.80;;;26.50;85.40;;;;;;4918442;29;20028;-78
2022/07/04 16:49:35;;;;;;;5.65;2.17;;;26.40;85.90;;;;;;4918562;29;20068;-79
2022/07/04 16:52:00;;;;;;;7.85;2.35;;;26.50;85.80;;;;;;4917676;29;20035;-79
2022/07/04 16:54:26;;;;;;;7.28;1.90;;;26.40;85.40;;;;;;4918348;29;20358;-79
2022/07/04 16:56:52;;;;;;;3.83;2.10;;;26.40;86.50;;;;;;4917755;29;20028;-79
2022/07/04 16:59:18;;;;;;;7.18;1.88;;;26.30;85.30;;;;;;4918093;29;20084;-79
2022/07/04 17:01:43;;;;;;;8.18;2.00;;;26.30;86.40;;;;;;4918198;29;20046;-79
2022/07/04 17:04:09;;;;;;;6.72;2.45;;;26.30;86.00;;;;;;4917820;29;20099;-78
2022/07/04 17:06:34;;;;;;;7.40;1.80;;;26.30;86.50;;;;;;4917498;29;20031;-77
2022/07/04 17:09:00;;;;;;;9.02;2.30;;;26.30;86.10;;;;;;4917852;29;20867;-78
2022/07/04 17:11:26;;;;;;;5.88;1.60;;;26.30;86.20;;;;;;4918114;29;20500;-78
2022/07/04 17:13:53;;;;;;;5.68;1.80;;;26.40;85.00;;;;;;4917625;29;20099;-79
2022/07/04 17:16:19;;;;;;;5.00;1.70;;;26.40;84.90;;;;;;4917926;29;20379;-77
2022/07/04 17:18:45;;;;;;;4.28;1.70;;;26.40;84.60;;;;;;4917680;29;20024;-76
2022/07/04 17:21:11;;;;;;;4.78;1.73;;;26.40;85.80;;;;;;4917478;29;20035;-76
2022/07/04 17:23:36;;;;;;;6.13;2.00;;;26.30;84.60;;;;;;4917443;29;20050;-77
2022/07/04 17:26:02;;;;;;;5.07;1.83;;;26.40;85.00;;;;;;4917538;29;20020;-77
2022/07/04 17:28:29;;;;;;;4.03;1.60;;;26.30;84.90;;;;;;4916494;29;20032;-75
2022/07/04 17:30:55;;;;;;;6.50;1.67;;;26.20;85.30;;;;;;4916083;29;20117;-77
2022/07/04 17:33:21;;;;;;;5.30;2.05;;;26.20;85.60;;;;;;4921103;29;20115;-74
2022/07/04 17:35:47;;;;;;;6.13;2.25;;;26.20;85.80;;;;;;4917411;29;20534;-78
2022/07/04 17:38:12;;;;;;;7.13;2.10;;;26.20;85.90;;;;;;4916100;29;20389;-78
2022/07/04 17:40:39;;;;;;;6.78;2.17;;;26.00;88.90;;;;;;4915790;29;20028;-80
2022/07/04 17:43:04;;;;;;;8.52;1.67;;;25.90;89.70;;;;;;4917053;29;20052;-77
2022/07/04 17:45:30;;;;;;;7.68;2.42;;;25.80;90.30;;;;;;4917843;29;20049;-77
2022/07/04 17:47:56;;;;;;;8.65;2.17;;;25.80;90.50;;;;;;4917890;29;20115;-79
2022/07/04 17:50:22;;;;;;;11.32;2.40;;;25.70;90.90;;;;;;4918749;29;20028;-77
2022/07/04 17:52:48;;;;;;;6.97;2.47;;;25.80;91.10;;;;;;4913595;29;20102;-77
2022/07/04 17:55:14;;;;;;;10.90;2.90;;;25.70;91.20;;;;;;4916758;29;20038;-78
2022/07/04 17:57:40;;;;;;;7.57;3.38;;;25.70;91.20;;;;;;4902567;29;20028;-77
2022/07/04 18:00:07;;;;;;;6.82;2.67;;;25.70;91.30;;;;;;4904609;29;20068;-78
2022/07/04 18:02:33;;;;;;;10.02;2.78;;;25.60;91.50;;;;;;4897174;29;20029;-78
2022/07/04 18:04:58;;;;;;;9.73;2.97;;;25.60;91.50;;;;;;4897877;29;20029;-78
2022/07/04 18:07:25;;;;;;;5.82;2.30;;;25.60;91.60;;;;;;4905427;29;20103;-78
2022/07/04 18:09:52;;;;;;;9.18;2.80;;;25.60;91.80;;;;;;4916792;29;20024;-79
2022/07/04 18:12:18;;;;;;;6.57;2.78;;;25.50;92.10;;;;;;4916706;29;20020;-78
2022/07/04 18:14:44;;;;;;;9.07;2.97;;;25.40;92.20;;;;;;4915346;29;20381;-79
2022/07/04 18:17:10;;;;;;;8.27;2.80;;;25.30;92.50;;;;;;4917348;29;20111;-79
2022/07/04 18:19:35;;;;;;;8.50;3.20;;;25.40;92.60;;;;;;4915862;29;20066;-81
2022/07/04 18:22:01;;;;;;;7.40;2.47;;;25.40;92.30;;;;;;4916005;29;20494;-76
2022/07/04 18:24:27;;;;;;;6.63;2.63;;;25.40;92.50;;;;;;4915364;29;20113;-77
2022/07/04 18:26:53;;;;;;;8.43;2.83;;;25.30;92.60;;;;;;4916301;29;20078;-78
2022/07/04 18:29:19;;;;;;;11.63;3.25;;;25.20;92.60;;;;;;4916871;29;20805;-79
2022/07/04 18:31:52;;;;;;;6.65;2.88;;;25.20;93.00;;;;;;4916667;29;20087;-78
2022/07/04 18:34:19;;;;;;;13.10;3.55;;;25.10;93.00;;;;;;4915819;29;20047;-77
2022/07/04 18:36:44;;;;;;;6.63;2.55;;;25.00;93.20;;;;;;4916753;29;20035;-77
2022/07/04 18:39:10;;;;;;;10.93;3.05;;;25.10;93.20;;;;;;4916787;29;20020;-77
2022/07/04 18:44:20;;;;;;;8.57;3.47;;;25.10;93.20;;;;;;4919608;29;20027;-77
2022/07/04 18:46:46;;;;;;;7.78;3.28;;;25.00;93.30;;;;;;4917641;29;20437;-78
2022/07/04 18:49:12;;;;;;;10.98;3.33;;;24.90;93.30;;;;;;4924067;29;21057;-78
2022/07/04 18:51:38;;;;;;;8.65;2.90;;;25.00;93.70;;;;;;4921234;29;20047;-77
2022/07/04 18:54:04;;;;;;;6.35;2.60;;;24.90;93.70;;;;;;4914755;29;20028;-77
2022/07/04 18:56:29;;;;;;;7.53;3.10;;;24.90;94.10;;;;;;4925143;29;20425;-77
2022/07/04 18:58:55;;;;;;;7.32;2.42;;;24.90;94.10;;;;;;4915804;29;20869;-77
2022/07/04 19:01:21;;;;;;;8.10;3.45;;;24.80;94.30;;;;;;4916066;29;20028;-77
2022/07/04 19:03:47;;;;;;;6.90;2.92;;;24.70;94.40;;;;;;4915837;29;20021;-78
2022/07/04 19:06:12;;;;;;;12.15;3.17;;;24.70;94.50;;;;;;4915658;29;20028;-77
2022/07/04 19:08:38;;;;;;;13.93;3.53;;;24.70;94.70;;;;;;4915795;29;20102;-79
2022/07/04 19:11:04;;;;;;;6.90;2.85;;;24.70;94.70;;;;;;4914743;29;20039;-79
2022/07/04 19:13:30;;;;;;;9.60;3.20;;;24.60;94.50;;;;;;4914303;29;20035;-77
2022/07/04 19:15:55;;;;;;;11.07;2.97;;;24.60;95.20;;;;;;4915381;29;20108;-77
2022/07/04 19:18:23;;;;;;;6.97;2.80;;;24.70;94.80;;;;;;4914301;29;20122;-77
2022/07/04 19:20:49;;;;;;;8.75;2.80;;;24.70;94.80;;;;;;4914942;29;20552;-77
2022/07/04 19:23:14;;;;;;;9.10;2.88;;;24.60;94.80;;;;;;4914996;29;20036;-77
2022/07/04 19:25:40;;;;;;;11.80;3.03;;;24.50;94.60;;;;;;4915699;29;20024;-77
2022/07/04 19:28:06;;;;;;;10.25;3.03;;;24.50;94.90;;;;;;4915480;29;20084;-76
2022/07/04 19:30:32;;;;;;;9.63;3.10;;;24.40;94.70;;;;;;4914922;29;20028;-78
2022/07/04 19:32:58;;;;;;;7.70;2.47;;;24.40;94.60;;;;;;4915482;29;20027;-78
2022/07/04 19:35:23;;;;;;;8.15;2.65;;;24.40;94.80;;;;;;4915726;29;20036;-79
2022/07/04 19:37:49;;;;;;;6.35;2.40;;;24.30;95.30;;;;;;4916207;29;20027;-79
2022/07/04 19:40:15;;;;;;;7.93;2.35;;;24.30;95.50;;;;;;4915228;29;20036;-80
2022/07/04 19:42:41;;;;;;;8.73;1.88;;;24.30;95.60;;;;;;4915955;29;20016;-79
2022/07/04 19:45:07;;;;;;;6.90;2.28;;;24.10;96.00;;;;;;4916262;29;20028;-80
2022/07/04 19:47:33;;;;;;;6.93;2.25;;;24.00;96.20;;;;;;4915550;29;20099;-79
2022/07/04 19:49:59;;;;;;;6.38;2.20;;;23.90;96.30;;;;;;4916125;29;20102;-79
2022/07/04 19:52:28;;;;;;;7.53;2.38;;;23.80;96.60;;;;;;4915238;29;20036;-80
2022/07/04 19:55:00;;;;;;;9.50;2.15;;;23.70;97.10;;;;;;4915840;29;20043;-79
2022/07/04 19:57:26;;;;;;;6.95;2.08;;;23.50;97.10;;;;;;4914794;29;20032;-80
2022/07/04 19:59:52;;;;;;;7.80;1.65;;;23.50;97.30;;;;;;4911599;29;20060;-80
2022/07/04 20:02:18;;;;;;;7.80;2.08;;;23.60;97.30;;;;;;4912877;29;20031;-79
2022/07/04 20:04:44;;;;;;;8.43;2.80;;;23.60;97.30;;;;;;4914264;29;20067;-79
2022/07/04 20:07:09;;;;;;;11.02;2.20;;;23.50;97.40;;;;;;4914622;29;20035;-79
2022/07/04 20:09:35;;;;;;;14.43;2.35;;;23.50;97.30;;;;;;4914981;29;20496;-79
2022/07/04 20:12:01;;;;;;;7.60;2.58;;;23.50;97.50;;;;;;4914838;29;20507;-80
2022/07/04 20:14:27;;;;;;;9.95;2.25;;;23.20;98.00;;;;;;4913963;29;20492;-79
2022/07/04 20:16:53;;;;;;;5.65;2.05;;;23.20;98.20;;;;;;4914969;29;20029;-80
2022/07/04 20:19:18;;;;;;;6.93;2.58;;;23.20;98.10;;;;;;4914003;29;20043;-80
2022/07/04 20:21:46;;;;;;;7.65;2.50;;;23.10;98.40;;;;;;4914033;29;20439;-80
2022/07/04 20:24:12;;;;;;;9.90;2.38;;;23.00;98.90;;;;;;4914528;29;20109;-79
2022/07/04 20:26:38;;;;;;;10.07;2.30;;;22.90;98.70;;;;;;4913751;29;20032;-79
2022/07/04 20:29:04;;;;;;;5.35;1.83;;;22.90;98.90;;;;;;4914238;29;20032;-80
2022/07/04 20:31:31;;;;;;;10.65;2.47;;;23.00;98.90;;;;;;4916936;29;20021;-80
2022/07/04 20:33:59;;;;;;;7.18;2.15;;;22.90;99.10;;;;;;4918222;29;20127;-79
2022/07/04 20:36:25;;;;;;;7.15;2.55;;;22.90;99.10;;;;;;4917905;29;20075;-79
2022/07/04 20:38:51;;;;;;;5.53;1.90;;;22.90;99.00;;;;;;4918058;29;20484;-79
2022/07/04 20:41:17;;;;;;;10.38;2.25;;;23.00;99.00;;;;;;4918232;29;20047;-79
2022/07/04 20:43:43;;;;;;;10.73;2.55;;;22.60;99.60;;;;;;4916078;29;20119;-80
2022/07/04 20:46:09;;;;;;;10.05;2.40;;;22.70;99.60;;;;;;4916581;29;20552;-79
2022/07/04 20:48:34;;;;;;;12.52;2.53;;;22.60;99.80;;;;;;4917503;29;20587;-79
2022/07/04 20:51:00;;;;;;;8.70;2.58;;;22.60;99.80;;;;;;4917252;29;20028;-80
2022/07/04 20:53:26;;;;;;;7.75;1.98;;;22.70;99.80;;;;;;4917939;29;20074;-80
2022/07/04 20:55:52;;;;;;;11.70;1.92;;;22.60;99.90;;;;;;4917871;29;20436;-80
2022/07/04 20:58:17;;;;;;;8.45;2.47;;;22.60;99.80;;;;;;4916656;29;20032;-79
2022/07/04 21:00:45;;;;;;;6.95;2.20;;;22.50;99.90;;;;;;4916680;29;20048;-79
2022/07/04 21:03:11;;;;;;;10.23;2.10;;;22.50;99.90;;;;;;4918095;29;20071;-79
2022/07/04 21:05:37;;;;;;;8.50;2.53;;;22.50;99.90;;;;;;4917603;29;20024;-80
2022/07/04 21:08:03;;;;;;;6.15;2.13;;;22.40;99.90;;;;;;4917600;29;20035;-80